X  Cerrar Datos meteorológicos de aviación METAR     LEZL Sevilla Airport
Temperatura
22°C Temperatura
15°C Punto de rocío
65% Humedad



Viento
16 KM/H
10 MPH
4 M/S
9 NUDO



230°
SO
Condiciones actuales

Despejado Despejado
Presión 1013.92 (hPa) - 29.94 (inHg)
Visibilidad 6.2 (milla) - 10 (km)
Aeropuerto
Código de aeropuerto LEZL

localidad: Sevilla Airport
Distancia: 41 (km)

Metar:
LEZL 222000Z 23009KT 200V260 CAVOK 22/15 Q1014 NOSIG

Hora: 22-05-2022 22:00 CEST